sensor_id;sensor_type;location;lat;lon;timestamp;temperature;humidity
25949;DHT22;13961;51.178;4.448;2022-12-18T00:02:16;-2.40;99.90
25949;DHT22;13961;51.178;4.448;2022-12-18T00:04:43;-2.50;99.90
25949;DHT22;13961;51.178;4.448;2022-12-18T00:07:09;-2.80;99.90
25949;DHT22;13961;51.178;4.448;2022-12-18T00:09:36;-3.10;99.90
25949;DHT22;13961;51.178;4.448;2022-12-18T00:12:02;-3.00;99.90
25949;DHT22;13961;51.178;4.448;2022-12-18T00:14:29;-3.20;99.90
25949;DHT22;13961;51.178;4.448;2022-12-18T00:16:57;-3.30;99.90
25949;DHT22;13961;51.178;4.448;2022-12-18T00:19:27;-3.30;99.90
25949;DHT22;13961;51.178;4.448;2022-12-18T00:21:52;-3.00;99.90
25949;DHT22;13961;51.178;4.448;2022-12-18T00:24:19;-2.90;99.90
25949;DHT22;13961;51.178;4.448;2022-12-18T00:26:45;-3.10;99.90
25949;DHT22;13961;51.178;4.448;2022-12-18T00:29:13;-2.90;99.90
25949;DHT22;13961;51.178;4.448;2022-12-18T00:31:40;-2.70;99.90
25949;DHT22;13961;51.178;4.448;2022-12-18T00:34:11;-2.90;99.90
25949;DHT22;13961;51.178;4.448;2022-12-18T00:36:39;-3.30;99.90
25949;DHT22;13961;51.178;4.448;2022-12-18T00:39:07;-3.30;99.90
25949;DHT22;13961;51.178;4.448;2022-12-18T00:41:34;-3.10;99.90
25949;DHT22;13961;51.178;4.448;2022-12-18T00:44:19;-3.00;99.90
25949;DHT22;13961;51.178;4.448;2022-12-18T00:46:47;-2.80;99.90
25949;DHT22;13961;51.178;4.448;2022-12-18T00:49:17;-2.80;99.90
25949;DHT22;13961;51.178;4.448;2022-12-18T00:51:45;-2.80;99.90
25949;DHT22;13961;51.178;4.448;2022-12-18T00:54:11;-2.90;99.90
25949;DHT22;13961;51.178;4.448;2022-12-18T00:56:38;-2.90;99.90
25949;DHT22;13961;51.178;4.448;2022-12-18T00:59:06;-2.90;99.90
25949;DHT22;13961;51.178;4.448;2022-12-18T01:01:35;-2.80;99.90
25949;DHT22;13961;51.178;4.448;2022-12-18T01:04:02;-2.80;99.90
25949;DHT22;13961;51.178;4.448;2022-12-18T01:06:33;-2.90;99.90
25949;DHT22;13961;51.178;4.448;2022-12-18T01:09:01;-2.90;99.90
25949;DHT22;13961;51.178;4.448;2022-12-18T01:11:27;-2.90;99.90
25949;DHT22;13961;51.178;4.448;2022-12-18T01:13:54;-2.90;99.90
25949;DHT22;13961;51.178;4.448;2022-12-18T01:16:22;-2.90;99.90
25949;DHT22;13961;51.178;4.448;2022-12-18T01:18:52;-3.00;99.90
25949;DHT22;13961;51.178;4.448;2022-12-18T01:21:22;-3.00;99.90
25949;DHT22;13961;51.178;4.448;2022-12-18T01:23:52;-3.00;99.90
25949;DHT22;13961;51.178;4.448;2022-12-18T01:26:19;-3.00;99.90
25949;DHT22;13961;51.178;4.448;2022-12-18T01:28:47;-3.10;99.90
25949;DHT22;13961;51.178;4.448;2022-12-18T01:31:23;-3.10;99.90
25949;DHT22;13961;51.178;4.448;2022-12-18T01:33:51;-3.10;99.90
25949;DHT22;13961;51.178;4.448;2022-12-18T01:36:21;-3.20;99.90
25949;DHT22;13961;51.178;4.448;2022-12-18T01:38:49;-3.20;99.90
25949;DHT22;13961;51.178;4.448;2022-12-18T01:41:19;-3.20;99.90
25949;DHT22;13961;51.178;4.448;2022-12-18T01:46:16;-3.20;99.90
25949;DHT22;13961;51.178;4.448;2022-12-18T01:48:42;-3.20;99.90
25949;DHT22;13961;51.178;4.448;2022-12-18T01:51:12;-3.30;99.90
25949;DHT22;13961;51.178;4.448;2022-12-18T01:53:41;-3.30;99.90
25949;DHT22;13961;51.178;4.448;2022-12-18T01:56:13;-3.20;99.90
25949;DHT22;13961;51.178;4.448;2022-12-18T01:58:54;-3.40;99.90
25949;DHT22;13961;51.178;4.448;2022-12-18T02:01:24;-3.40;99.90
25949;DHT22;13961;51.178;4.448;2022-12-18T02:03:53;-3.50;99.90
25949;DHT22;13961;51.178;4.448;2022-12-18T02:06:29;-3.40;99.90
25949;DHT22;13961;51.178;4.448;2022-12-18T02:09:12;-3.50;99.90
25949;DHT22;13961;51.178;4.448;2022-12-18T02:12:04;-3.50;99.90
25949;DHT22;13961;51.178;4.448;2022-12-18T02:25:12;-3.50;99.90
25949;DHT22;13961;51.178;4.448;2022-12-18T02:27:42;-3.60;99.90
25949;DHT22;13961;51.178;4.448;2022-12-18T02:30:09;-3.50;99.90
25949;DHT22;13961;51.178;4.448;2022-12-18T02:32:43;-3.50;99.90
25949;DHT22;13961;51.178;4.448;2022-12-18T02:35:16;-3.50;99.90
25949;DHT22;13961;51.178;4.448;2022-12-18T02:37:46;-3.50;99.90
25949;DHT22;13961;51.178;4.448;2022-12-18T02:40:15;-3.50;99.90
25949;DHT22;13961;51.178;4.448;2022-12-18T02:42:44;-3.70;99.90
25949;DHT22;13961;51.178;4.448;2022-12-18T02:45:10;-3.70;99.90
25949;DHT22;13961;51.178;4.448;2022-12-18T02:47:40;-3.60;99.90
25949;DHT22;13961;51.178;4.448;2022-12-18T02:50:34;-3.70;99.90
25949;DHT22;13961;51.178;4.448;2022-12-18T02:58:33;-3.50;99.90
25949;DHT22;13961;51.178;4.448;2022-12-18T03:01:31;-3.60;99.90
25949;DHT22;13961;51.178;4.448;2022-12-18T03:04:01;-3.80;99.90
25949;DHT22;13961;51.178;4.448;2022-12-18T03:06:38;-3.70;99.90
25949;DHT22;13961;51.178;4.448;2022-12-18T03:09:34;-3.70;99.90
25949;DHT22;13961;51.178;4.448;2022-12-18T03:15:01;-3.60;99.90
25949;DHT22;13961;51.178;4.448;2022-12-18T03:17:32;-3.60;99.90
25949;DHT22;13961;51.178;4.448;2022-12-18T03:20:12;-3.50;99.90
25949;DHT22;13961;51.178;4.448;2022-12-18T03:22:43;-3.70;99.90
25949;DHT22;13961;51.178;4.448;2022-12-18T03:25:13;-3.70;99.90
25949;DHT22;13961;51.178;4.448;2022-12-18T03:27:48;-3.60;99.90
25949;DHT22;13961;51.178;4.448;2022-12-18T03:30:17;-3.60;99.90
25949;DHT22;13961;51.178;4.448;2022-12-18T03:35:36;-3.70;99.90
25949;DHT22;13961;51.178;4.448;2022-12-18T03:38:02;-3.80;99.90
25949;DHT22;13961;51.178;4.448;2022-12-18T03:40:51;-3.80;99.90
25949;DHT22;13961;51.178;4.448;2022-12-18T03:46:03;-3.80;99.90
25949;DHT22;13961;51.178;4.448;2022-12-18T03:48:41;-3.80;99.90
25949;DHT22;13961;51.178;4.448;2022-12-18T03:51:16;-3.90;99.90
25949;DHT22;13961;51.178;4.448;2022-12-18T03:53:53;-4.00;99.90
25949;DHT22;13961;51.178;4.448;2022-12-18T03:56:26;-3.90;99.90
25949;DHT22;13961;51.178;4.448;2022-12-18T03:59:01;-4.00;99.90
25949;DHT22;13961;51.178;4.448;2022-12-18T04:01:37;-4.00;99.90
25949;DHT22;13961;51.178;4.448;2022-12-18T04:04:05;-4.10;99.90
25949;DHT22;13961;51.178;4.448;2022-12-18T04:06:32;-4.10;99.90
25949;DHT22;13961;51.178;4.448;2022-12-18T04:08:59;-4.00;99.90
25949;DHT22;13961;51.178;4.448;2022-12-18T04:11:27;-4.00;99.90
25949;DHT22;13961;51.178;4.448;2022-12-18T04:13:58;-4.00;99.90
25949;DHT22;13961;51.178;4.448;2022-12-18T04:16:25;-4.00;99.90
25949;DHT22;13961;51.178;4.448;2022-12-18T04:18:51;-4.00;99.90
25949;DHT22;13961;51.178;4.448;2022-12-18T04:21:17;-3.90;99.90
25949;DHT22;13961;51.178;4.448;2022-12-18T04:23:46;-3.90;99.90
25949;DHT22;13961;51.178;4.448;2022-12-18T04:26:12;-3.90;99.90
25949;DHT22;13961;51.178;4.448;2022-12-18T04:28:39;-3.90;99.90
25949;DHT22;13961;51.178;4.448;2022-12-18T04:31:07;-3.90;99.90
25949;DHT22;13961;51.178;4.448;2022-12-18T04:33:33;-3.80;99.90
25949;DHT22;13961;51.178;4.448;2022-12-18T04:36:03;-4.00;99.90
25949;DHT22;13961;51.178;4.448;2022-12-18T04:38:30;-4.00;99.90
25949;DHT22;13961;51.178;4.448;2022-12-18T04:40:58;-4.00;99.90
25949;DHT22;13961;51.178;4.448;2022-12-18T04:43:24;-4.10;99.90
25949;DHT22;13961;51.178;4.448;2022-12-18T04:45:50;-4.00;99.90
25949;DHT22;13961;51.178;4.448;2022-12-18T04:48:17;-3.90;99.90
25949;DHT22;13961;51.178;4.448;2022-12-18T04:50:43;-3.90;99.90
25949;DHT22;13961;51.178;4.448;2022-12-18T04:53:10;-4.10;99.90
25949;DHT22;13961;51.178;4.448;2022-12-18T04:55:38;-4.20;99.90
25949;DHT22;13961;51.178;4.448;2022-12-18T04:58:04;-4.10;99.90
25949;DHT22;13961;51.178;4.448;2022-12-18T05:00:32;-3.80;99.90
25949;DHT22;13961;51.178;4.448;2022-12-18T05:03:01;-4.00;99.90
25949;DHT22;13961;51.178;4.448;2022-12-18T05:05:28;-4.00;99.90
25949;DHT22;13961;51.178;4.448;2022-12-18T05:07:54;-4.00;99.90
25949;DHT22;13961;51.178;4.448;2022-12-18T05:10:20;-4.10;99.90
25949;DHT22;13961;51.178;4.448;2022-12-18T05:12:47;-4.10;99.90
25949;DHT22;13961;51.178;4.448;2022-12-18T05:15:32;-4.00;99.90
25949;DHT22;13961;51.178;4.448;2022-12-18T05:17:59;-3.90;99.90
25949;DHT22;13961;51.178;4.448;2022-12-18T05:20:28;-3.80;99.90
25949;DHT22;13961;51.178;4.448;2022-12-18T05:22:56;-3.90;99.90
25949;DHT22;13961;51.178;4.448;2022-12-18T05:25:22;-3.90;99.90
25949;DHT22;13961;51.178;4.448;2022-12-18T05:27:48;-3.80;99.90
25949;DHT22;13961;51.178;4.448;2022-12-18T05:30:17;-3.60;99.90
25949;DHT22;13961;51.178;4.448;2022-12-18T05:32:45;-3.80;99.90
25949;DHT22;13961;51.178;4.448;2022-12-18T05:35:12;-3.80;99.90
25949;DHT22;13961;51.178;4.448;2022-12-18T05:37:37;-3.90;99.90
25949;DHT22;13961;51.178;4.448;2022-12-18T05:40:04;-4.10;99.90
25949;DHT22;13961;51.178;4.448;2022-12-18T05:42:31;-4.10;99.90
25949;DHT22;13961;51.178;4.448;2022-12-18T05:44:56;-4.10;99.90
25949;DHT22;13961;51.178;4.448;2022-12-18T05:47:23;-4.10;99.90
25949;DHT22;13961;51.178;4.448;2022-12-18T05:49:49;-4.00;99.90
25949;DHT22;13961;51.178;4.448;2022-12-18T05:52:15;-4.00;99.90
25949;DHT22;13961;51.178;4.448;2022-12-18T05:54:41;-4.00;99.90
25949;DHT22;13961;51.178;4.448;2022-12-18T05:57:07;-4.00;99.90
25949;DHT22;13961;51.178;4.448;2022-12-18T05:59:33;-4.00;99.90
25949;DHT22;13961;51.178;4.448;2022-12-18T06:01:59;-4.00;99.90
25949;DHT22;13961;51.178;4.448;2022-12-18T06:04:27;-4.00;99.90
25949;DHT22;13961;51.178;4.448;2022-12-18T06:06:55;-4.10;99.90
25949;DHT22;13961;51.178;4.448;2022-12-18T06:09:23;-4.00;99.90
25949;DHT22;13961;51.178;4.448;2022-12-18T06:11:51;-4.10;99.90
25949;DHT22;13961;51.178;4.448;2022-12-18T06:14:18;-4.20;99.90
25949;DHT22;13961;51.178;4.448;2022-12-18T06:16:45;-4.20;99.90
25949;DHT22;13961;51.178;4.448;2022-12-18T06:19:15;-4.30;99.90
25949;DHT22;13961;51.178;4.448;2022-12-18T06:21:41;-4.30;99.90
25949;DHT22;13961;51.178;4.448;2022-12-18T06:24:07;-4.30;99.90
25949;DHT22;13961;51.178;4.448;2022-12-18T06:26:39;-4.30;99.90
25949;DHT22;13961;51.178;4.448;2022-12-18T06:29:07;-4.20;99.90
25949;DHT22;13961;51.178;4.448;2022-12-18T06:31:33;-4.20;99.90
25949;DHT22;13961;51.178;4.448;2022-12-18T06:34:01;-4.20;99.90
25949;DHT22;13961;51.178;4.448;2022-12-18T06:36:29;-4.30;99.90
25949;DHT22;13961;51.178;4.448;2022-12-18T06:38:57;-4.20;99.90
25949;DHT22;13961;51.178;4.448;2022-12-18T06:41:24;-4.10;99.90
25949;DHT22;13961;51.178;4.448;2022-12-18T06:43:51;-4.30;99.90
25949;DHT22;13961;51.178;4.448;2022-12-18T06:46:18;-4.20;99.90
25949;DHT22;13961;51.178;4.448;2022-12-18T06:48:49;-4.20;99.90
25949;DHT22;13961;51.178;4.448;2022-12-18T06:51:20;-4.20;99.90
25949;DHT22;13961;51.178;4.448;2022-12-18T06:53:49;-4.00;99.90
25949;DHT22;13961;51.178;4.448;2022-12-18T06:56:18;-4.20;99.90
25949;DHT22;13961;51.178;4.448;2022-12-18T06:58:47;-4.20;99.90
25949;DHT22;13961;51.178;4.448;2022-12-18T07:01:15;-4.20;99.90
25949;DHT22;13961;51.178;4.448;2022-12-18T07:03:51;-4.20;99.90
25949;DHT22;13961;51.178;4.448;2022-12-18T07:06:19;-4.10;99.90
25949;DHT22;13961;51.178;4.448;2022-12-18T07:08:47;-4.10;99.90
25949;DHT22;13961;51.178;4.448;2022-12-18T07:11:16;-4.20;99.90
25949;DHT22;13961;51.178;4.448;2022-12-18T07:13:44;-3.90;99.90
25949;DHT22;13961;51.178;4.448;2022-12-18T07:16:20;-4.00;99.90
25949;DHT22;13961;51.178;4.448;2022-12-18T07:18:47;-4.00;99.90
25949;DHT22;13961;51.178;4.448;2022-12-18T07:21:18;-4.00;99.90
25949;DHT22;13961;51.178;4.448;2022-12-18T07:23:43;-4.00;99.90
25949;DHT22;13961;51.178;4.448;2022-12-18T07:26:17;-4.10;99.90
25949;DHT22;13961;51.178;4.448;2022-12-18T07:28:43;-4.10;99.90
25949;DHT22;13961;51.178;4.448;2022-12-18T07:31:13;-4.30;99.90
25949;DHT22;13961;51.178;4.448;2022-12-18T07:33:40;-4.20;99.90
25949;DHT22;13961;51.178;4.448;2022-12-18T07:36:10;-4.10;99.90
25949;DHT22;13961;51.178;4.448;2022-12-18T07:38:39;-4.10;99.90
25949;DHT22;13961;51.178;4.448;2022-12-18T07:41:12;-4.10;99.90
25949;DHT22;13961;51.178;4.448;2022-12-18T07:43:40;-4.00;99.90
25949;DHT22;13961;51.178;4.448;2022-12-18T07:46:06;-4.20;99.90
25949;DHT22;13961;51.178;4.448;2022-12-18T07:48:34;-4.20;99.90
25949;DHT22;13961;51.178;4.448;2022-12-18T07:51:05;-4.20;99.90
25949;DHT22;13961;51.178;4.448;2022-12-18T07:53:33;-4.00;99.90
25949;DHT22;13961;51.178;4.448;2022-12-18T07:56:01;-4.00;99.90
25949;DHT22;13961;51.178;4.448;2022-12-18T07:58:31;-4.00;99.90
25949;DHT22;13961;51.178;4.448;2022-12-18T08:01:11;-3.90;99.90
25949;DHT22;13961;51.178;4.448;2022-12-18T08:03:39;-3.80;99.90
25949;DHT22;13961;51.178;4.448;2022-12-18T08:06:09;-3.90;99.90
25949;DHT22;13961;51.178;4.448;2022-12-18T08:08:36;-3.80;99.90
25949;DHT22;13961;51.178;4.448;2022-12-18T08:11:04;-3.80;99.90
25949;DHT22;13961;51.178;4.448;2022-12-18T08:13:30;-3.80;99.90
25949;DHT22;13961;51.178;4.448;2022-12-18T08:16:01;-3.90;99.90
25949;DHT22;13961;51.178;4.448;2022-12-18T08:18:28;-3.90;99.90
25949;DHT22;13961;51.178;4.448;2022-12-18T08:20:55;-4.00;99.90
25949;DHT22;13961;51.178;4.448;2022-12-18T08:23:22;-4.00;99.90
25949;DHT22;13961;51.178;4.448;2022-12-18T08:25:49;-3.90;99.90
25949;DHT22;13961;51.178;4.448;2022-12-18T08:28:16;-4.10;99.90
25949;DHT22;13961;51.178;4.448;2022-12-18T08:30:42;-4.00;99.90
25949;DHT22;13961;51.178;4.448;2022-12-18T08:33:08;-4.10;99.90
25949;DHT22;13961;51.178;4.448;2022-12-18T08:35:37;-4.20;99.90
25949;DHT22;13961;51.178;4.448;2022-12-18T08:38:03;-4.00;99.90
25949;DHT22;13961;51.178;4.448;2022-12-18T08:40:29;-4.00;99.90
25949;DHT22;13961;51.178;4.448;2022-12-18T08:42:54;-3.50;99.90
25949;DHT22;13961;51.178;4.448;2022-12-18T08:45:39;-3.60;99.90
25949;DHT22;13961;51.178;4.448;2022-12-18T08:48:06;-3.50;99.90
25949;DHT22;13961;51.178;4.448;2022-12-18T08:50:32;-3.40;99.90
25949;DHT22;13961;51.178;4.448;2022-12-18T08:53:01;-3.20;99.90
25949;DHT22;13961;51.178;4.448;2022-12-18T08:55:28;-3.20;99.90
25949;DHT22;13961;51.178;4.448;2022-12-18T08:57:54;-3.00;99.90
25949;DHT22;13961;51.178;4.448;2022-12-18T09:00:20;-2.90;99.90
25949;DHT22;13961;51.178;4.448;2022-12-18T09:02:51;-2.90;99.90
25949;DHT22;13961;51.178;4.448;2022-12-18T09:05:17;-3.00;99.90
25949;DHT22;13961;51.178;4.448;2022-12-18T09:07:48;-3.00;99.90
25949;DHT22;13961;51.178;4.448;2022-12-18T09:10:15;-3.10;99.90
25949;DHT22;13961;51.178;4.448;2022-12-18T09:12:41;-2.70;99.90
25949;DHT22;13961;51.178;4.448;2022-12-18T09:15:10;-2.50;99.90
25949;DHT22;13961;51.178;4.448;2022-12-18T09:17:36;-2.70;99.90
25949;DHT22;13961;51.178;4.448;2022-12-18T09:20:04;-2.40;99.90
25949;DHT22;13961;51.178;4.448;2022-12-18T09:22:30;-2.30;99.90
25949;DHT22;13961;51.178;4.448;2022-12-18T09:24:59;-2.30;99.90
25949;DHT22;13961;51.178;4.448;2022-12-18T09:27:27;-2.20;99.90
25949;DHT22;13961;51.178;4.448;2022-12-18T09:29:55;-2.30;99.90
25949;DHT22;13961;51.178;4.448;2022-12-18T09:32:24;-2.40;99.90
25949;DHT22;13961;51.178;4.448;2022-12-18T09:34:50;-2.50;99.90
25949;DHT22;13961;51.178;4.448;2022-12-18T09:37:16;-2.50;99.90
25949;DHT22;13961;51.178;4.448;2022-12-18T09:39:43;-2.30;99.90
25949;DHT22;13961;51.178;4.448;2022-12-18T09:42:20;-2.40;99.90
25949;DHT22;13961;51.178;4.448;2022-12-18T09:44:50;-2.50;99.90
25949;DHT22;13961;51.178;4.448;2022-12-18T09:49:48;-2.10;99.90
25949;DHT22;13961;51.178;4.448;2022-12-18T09:54:52;-2.40;99.90
25949;DHT22;13961;51.178;4.448;2022-12-18T09:57:24;-2.30;99.90
25949;DHT22;13961;51.178;4.448;2022-12-18T10:00:11;-2.10;99.90
25949;DHT22;13961;51.178;4.448;2022-12-18T10:02:41;-2.10;99.90
25949;DHT22;13961;51.178;4.448;2022-12-18T10:05:12;-2.00;99.90
25949;DHT22;13961;51.178;4.448;2022-12-18T10:10:41;-1.90;99.90
25949;DHT22;13961;51.178;4.448;2022-12-18T10:16:03;-1.50;99.90
25949;DHT22;13961;51.178;4.448;2022-12-18T10:18:59;-1.40;99.90
25949;DHT22;13961;51.178;4.448;2022-12-18T10:21:45;-1.70;99.90
25949;DHT22;13961;51.178;4.448;2022-12-18T10:24:41;-1.80;99.90
25949;DHT22;13961;51.178;4.448;2022-12-18T10:27:16;-1.80;99.90
25949;DHT22;13961;51.178;4.448;2022-12-18T10:29:44;-2.00;99.90
25949;DHT22;13961;51.178;4.448;2022-12-18T10:32:22;-2.10;99.90
25949;DHT22;13961;51.178;4.448;2022-12-18T10:34:51;-2.20;99.90
25949;DHT22;13961;51.178;4.448;2022-12-18T10:37:22;-1.80;99.90
25949;DHT22;13961;51.178;4.448;2022-12-18T10:40:13;-1.60;99.90
25949;DHT22;13961;51.178;4.448;2022-12-18T10:42:39;-1.70;99.90
25949;DHT22;13961;51.178;4.448;2022-12-18T10:45:13;-1.60;99.90
25949;DHT22;13961;51.178;4.448;2022-12-18T10:47:43;-1.60;99.90
25949;DHT22;13961;51.178;4.448;2022-12-18T10:50:32;-1.70;99.90
25949;DHT22;13961;51.178;4.448;2022-12-18T10:53:01;-1.30;99.90
25949;DHT22;13961;51.178;4.448;2022-12-18T10:55:34;-1.00;99.90
25949;DHT22;13961;51.178;4.448;2022-12-18T11:01:18;-1.40;99.90
25949;DHT22;13961;51.178;4.448;2022-12-18T11:04:01;-1.10;99.90
25949;DHT22;13961;51.178;4.448;2022-12-18T11:06:32;-1.20;99.90
25949;DHT22;13961;51.178;4.448;2022-12-18T11:09:05;-1.40;99.90
25949;DHT22;13961;51.178;4.448;2022-12-18T11:11:32;-1.40;99.90
25949;DHT22;13961;51.178;4.448;2022-12-18T11:14:16;-1.20;99.90
25949;DHT22;13961;51.178;4.448;2022-12-18T11:16:48;-0.80;99.90
25949;DHT22;13961;51.178;4.448;2022-12-18T11:21:51;-1.00;99.90
25949;DHT22;13961;51.178;4.448;2022-12-18T11:24:35;-1.20;99.90
25949;DHT22;13961;51.178;4.448;2022-12-18T11:27:04;-1.10;99.90
25949;DHT22;13961;51.178;4.448;2022-12-18T11:29:39;-1.00;99.90
25949;DHT22;13961;51.178;4.448;2022-12-18T11:34:42;-0.80;99.90
25949;DHT22;13961;51.178;4.448;2022-12-18T11:37:11;-0.70;99.90
25949;DHT22;13961;51.178;4.448;2022-12-18T11:39:46;-0.70;99.90
25949;DHT22;13961;51.178;4.448;2022-12-18T11:45:30;-0.60;99.90
25949;DHT22;13961;51.178;4.448;2022-12-18T11:48:14;-0.20;99.90
25949;DHT22;13961;51.178;4.448;2022-12-18T11:53:17;-0.30;99.90
25949;DHT22;13961;51.178;4.448;2022-12-18T12:01:18;-0.50;99.90
25949;DHT22;13961;51.178;4.448;2022-12-18T12:06:37;-0.20;99.90
25949;DHT22;13961;51.178;4.448;2022-12-18T12:20:27;-0.10;99.90
25949;DHT22;13961;51.178;4.448;2022-12-18T12:23:05;-0.10;99.90
25949;DHT22;13961;51.178;4.448;2022-12-18T12:25:46;0.00;99.90
25949;DHT22;13961;51.178;4.448;2022-12-18T12:34:04;0.30;99.90
25949;DHT22;13961;51.178;4.448;2022-12-18T12:39:23;0.80;99.90
25949;DHT22;13961;51.178;4.448;2022-12-18T12:41:53;0.80;99.90
25949;DHT22;13961;51.178;4.448;2022-12-18T12:44:45;0.60;99.90
25949;DHT22;13961;51.178;4.448;2022-12-18T12:47:33;0.40;99.90
25949;DHT22;13961;51.178;4.448;2022-12-18T12:50:05;0.50;99.90
25949;DHT22;13961;51.178;4.448;2022-12-18T12:52:39;0.40;99.90
25949;DHT22;13961;51.178;4.448;2022-12-18T12:55:28;0.40;99.90
25949;DHT22;13961;51.178;4.448;2022-12-18T13:03:52;0.10;99.90
25949;DHT22;13961;51.178;4.448;2022-12-18T13:06:27;0.10;99.90
25949;DHT22;13961;51.178;4.448;2022-12-18T13:09:00;0.30;99.90
25949;DHT22;13961;51.178;4.448;2022-12-18T13:11:42;0.20;99.90
25949;DHT22;13961;51.178;4.448;2022-12-18T13:14:34;0.10;99.90
25949;DHT22;13961;51.178;4.448;2022-12-18T13:17:17;0.10;99.90
25949;DHT22;13961;51.178;4.448;2022-12-18T13:20:11;0.40;99.90
25949;DHT22;13961;51.178;4.448;2022-12-18T13:28:08;0.10;99.90
25949;DHT22;13961;51.178;4.448;2022-12-18T13:35:53;0.20;99.90
25949;DHT22;13961;51.178;4.448;2022-12-18T13:41:26;0.30;99.90
25949;DHT22;13961;51.178;4.448;2022-12-18T13:43:57;0.40;99.90
25949;DHT22;13961;51.178;4.448;2022-12-18T13:46:48;0.30;99.90
25949;DHT22;13961;51.178;4.448;2022-12-18T13:49:40;0.20;99.90
25949;DHT22;13961;51.178;4.448;2022-12-18T13:52:17;0.70;99.90
25949;DHT22;13961;51.178;4.448;2022-12-18T13:55:05;0.40;99.90
25949;DHT22;13961;51.178;4.448;2022-12-18T13:57:38;0.50;99.90
25949;DHT22;13961;51.178;4.448;2022-12-18T14:00:24;0.40;99.90
25949;DHT22;13961;51.178;4.448;2022-12-18T14:02:51;0.30;99.90
25949;DHT22;13961;51.178;4.448;2022-12-18T14:05:31;0.50;99.90
25949;DHT22;13961;51.178;4.448;2022-12-18T14:08:16;0.50;99.90
25949;DHT22;13961;51.178;4.448;2022-12-18T14:10:45;0.80;99.90
25949;DHT22;13961;51.178;4.448;2022-12-18T14:13:26;0.70;99.90
25949;DHT22;13961;51.178;4.448;2022-12-18T14:15:56;0.80;99.90
25949;DHT22;13961;51.178;4.448;2022-12-18T14:18:37;0.90;99.90
25949;DHT22;13961;51.178;4.448;2022-12-18T14:21:04;0.80;99.90
25949;DHT22;13961;51.178;4.448;2022-12-18T14:23:38;0.90;99.90
25949;DHT22;13961;51.178;4.448;2022-12-18T14:26:30;1.00;99.90
25949;DHT22;13961;51.178;4.448;2022-12-18T14:28:58;0.60;99.90
25949;DHT22;13961;51.178;4.448;2022-12-18T14:31:30;0.80;99.90
25949;DHT22;13961;51.178;4.448;2022-12-18T14:33:58;0.80;99.90
25949;DHT22;13961;51.178;4.448;2022-12-18T14:36:28;1.00;99.90
25949;DHT22;13961;51.178;4.448;2022-12-18T14:39:00;0.80;99.90
25949;DHT22;13961;51.178;4.448;2022-12-18T14:41:32;0.70;99.90
25949;DHT22;13961;51.178;4.448;2022-12-18T14:44:06;0.50;99.90
25949;DHT22;13961;51.178;4.448;2022-12-18T14:46:34;0.50;99.90
25949;DHT22;13961;51.178;4.448;2022-12-18T14:51:31;0.70;99.90
25949;DHT22;13961;51.178;4.448;2022-12-18T14:54:00;0.70;99.90
25949;DHT22;13961;51.178;4.448;2022-12-18T14:56:31;0.50;99.90
25949;DHT22;13961;51.178;4.448;2022-12-18T14:59:04;0.60;99.90
25949;DHT22;13961;51.178;4.448;2022-12-18T15:02:18;0.90;99.90
25949;DHT22;13961;51.178;4.448;2022-12-18T15:04:38;0.80;99.90
25949;DHT22;13961;51.178;4.448;2022-12-18T15:07:16;0.70;99.90
25949;DHT22;13961;51.178;4.448;2022-12-18T15:09:44;0.60;99.90
25949;DHT22;13961;51.178;4.448;2022-12-18T15:12:36;0.90;99.90
25949;DHT22;13961;51.178;4.448;2022-12-18T15:15:03;1.00;99.90
25949;DHT22;13961;51.178;4.448;2022-12-18T15:17:30;0.80;99.90
25949;DHT22;13961;51.178;4.448;2022-12-18T15:20:02;0.50;99.90
25949;DHT22;13961;51.178;4.448;2022-12-18T15:22:32;0.60;99.90
25949;DHT22;13961;51.178;4.448;2022-12-18T15:24:59;0.80;99.90
25949;DHT22;13961;51.178;4.448;2022-12-18T15:32:38;1.00;99.90
25949;DHT22;13961;51.178;4.448;2022-12-18T15:37:39;0.90;99.90
25949;DHT22;13961;51.178;4.448;2022-12-18T15:40:07;1.20;99.90
25949;DHT22;13961;51.178;4.448;2022-12-18T15:42:34;1.20;99.90
25949;DHT22;13961;51.178;4.448;2022-12-18T15:45:18;1.10;99.90
25949;DHT22;13961;51.178;4.448;2022-12-18T15:47:44;1.20;99.90
25949;DHT22;13961;51.178;4.448;2022-12-18T15:50:11;1.30;99.90
25949;DHT22;13961;51.178;4.448;2022-12-18T15:52:43;1.30;99.90
25949;DHT22;13961;51.178;4.448;2022-12-18T15:55:14;1.60;99.90
25949;DHT22;13961;51.178;4.448;2022-12-18T15:57:59;1.30;99.90
25949;DHT22;13961;51.178;4.448;2022-12-18T16:00:25;1.20;99.90
25949;DHT22;13961;51.178;4.448;2022-12-18T16:02:51;1.20;99.90
25949;DHT22;13961;51.178;4.448;2022-12-18T16:05:18;1.40;99.90
25949;DHT22;13961;51.178;4.448;2022-12-18T16:07:45;1.20;99.90
25949;DHT22;13961;51.178;4.448;2022-12-18T16:10:11;1.30;99.90
25949;DHT22;13961;51.178;4.448;2022-12-18T16:12:37;1.20;99.90
25949;DHT22;13961;51.178;4.448;2022-12-18T16:15:04;1.20;99.90
25949;DHT22;13961;51.178;4.448;2022-12-18T16:17:32;1.10;99.90
25949;DHT22;13961;51.178;4.448;2022-12-18T16:19:58;1.00;99.90
25949;DHT22;13961;51.178;4.448;2022-12-18T16:22:26;1.10;99.90
25949;DHT22;13961;51.178;4.448;2022-12-18T16:24:55;1.10;99.90
25949;DHT22;13961;51.178;4.448;2022-12-18T16:27:21;1.20;99.90
25949;DHT22;13961;51.178;4.448;2022-12-18T16:29:47;1.20;99.90
25949;DHT22;13961;51.178;4.448;2022-12-18T16:32:18;1.30;99.90
25949;DHT22;13961;51.178;4.448;2022-12-18T16:34:45;1.30;99.90
25949;DHT22;13961;51.178;4.448;2022-12-18T16:37:14;1.30;99.90
25949;DHT22;13961;51.178;4.448;2022-12-18T16:39:41;1.30;99.90
25949;DHT22;13961;51.178;4.448;2022-12-18T16:42:16;1.40;99.90
25949;DHT22;13961;51.178;4.448;2022-12-18T16:44:45;1.30;99.90
25949;DHT22;13961;51.178;4.448;2022-12-18T16:47:12;1.30;99.90
25949;DHT22;13961;51.178;4.448;2022-12-18T16:49:40;1.50;99.90
25949;DHT22;13961;51.178;4.448;2022-12-18T16:52:08;1.50;99.90
25949;DHT22;13961;51.178;4.448;2022-12-18T16:54:33;1.40;99.90
25949;DHT22;13961;51.178;4.448;2022-12-18T16:57:02;1.50;99.90
25949;DHT22;13961;51.178;4.448;2022-12-18T16:59:30;1.50;99.90
25949;DHT22;13961;51.178;4.448;2022-12-18T17:01:56;1.40;99.90
25949;DHT22;13961;51.178;4.448;2022-12-18T17:04:22;1.50;99.90
25949;DHT22;13961;51.178;4.448;2022-12-18T17:06:48;1.50;99.90
25949;DHT22;13961;51.178;4.448;2022-12-18T17:09:17;1.30;99.90
25949;DHT22;13961;51.178;4.448;2022-12-18T17:11:47;1.40;99.90
25949;DHT22;13961;51.178;4.448;2022-12-18T17:14:16;1.40;99.90
25949;DHT22;13961;51.178;4.448;2022-12-18T17:16:41;1.40;99.90
25949;DHT22;13961;51.178;4.448;2022-12-18T17:19:08;1.30;99.90
25949;DHT22;13961;51.178;4.448;2022-12-18T17:21:34;1.50;99.90
25949;DHT22;13961;51.178;4.448;2022-12-18T17:24:00;1.60;99.90
25949;DHT22;13961;51.178;4.448;2022-12-18T17:26:27;1.50;99.90
25949;DHT22;13961;51.178;4.448;2022-12-18T17:28:55;1.70;99.90
25949;DHT22;13961;51.178;4.448;2022-12-18T17:31:23;1.70;99.90
25949;DHT22;13961;51.178;4.448;2022-12-18T17:33:50;1.70;99.90
25949;DHT22;13961;51.178;4.448;2022-12-18T17:36:15;1.70;99.90
25949;DHT22;13961;51.178;4.448;2022-12-18T17:38:42;1.60;99.90
25949;DHT22;13961;51.178;4.448;2022-12-18T17:41:10;1.60;99.90
25949;DHT22;13961;51.178;4.448;2022-12-18T17:43:37;1.60;99.90
25949;DHT22;13961;51.178;4.448;2022-12-18T17:46:14;1.60;99.90
25949;DHT22;13961;51.178;4.448;2022-12-18T17:48:40;1.50;99.90